createdAt,value
2017-06-09T00:00:02.728Z,100556
2017-06-09T00:02:30.900Z,100559
2017-06-09T00:04:59.613Z,100554
2017-06-09T00:07:27.893Z,100548
2017-06-09T00:09:56.079Z,100549
2017-06-09T00:12:24.655Z,100541
2017-06-09T00:14:52.847Z,100530
2017-06-09T00:17:21.091Z,100531
2017-06-09T00:19:49.684Z,100534
2017-06-09T00:22:17.869Z,100529
2017-06-09T00:24:46.835Z,100527
2017-06-09T00:27:15.480Z,100515
2017-06-09T00:29:43.660Z,100513
2017-06-09T00:32:11.868Z,100502
2017-06-09T00:34:40.552Z,100495
2017-06-09T00:37:08.734Z,100488
2017-06-09T00:39:37.945Z,100486
2017-06-09T00:42:06.515Z,100490
2017-06-09T00:44:34.739Z,100487
2017-06-09T00:47:02.925Z,100486
2017-06-09T00:49:31.458Z,100482
2017-06-09T00:51:59.675Z,100485
2017-06-09T00:54:27.862Z,100485
2017-06-09T00:56:56.387Z,100481
2017-06-09T00:59:25.411Z,100471
2017-06-09T01:01:53.578Z,100468
2017-06-09T01:04:22.268Z,100472
2017-06-09T01:06:50.471Z,100474
2017-06-09T01:09:18.677Z,100477
2017-06-09T01:11:47.255Z,100467
2017-06-09T01:14:15.430Z,100461
2017-06-09T01:16:43.615Z,100457
2017-06-09T01:19:12.163Z,100461
2017-06-09T01:21:40.364Z,100459
2017-06-09T01:24:08.546Z,100455
2017-06-09T01:26:37.112Z,100451
2017-06-09T01:29:05.296Z,100453
2017-06-09T01:31:33.469Z,100441
2017-06-09T01:34:02.010Z,100439
2017-06-09T01:36:30.206Z,100446
2017-06-09T01:38:58.383Z,100450
2017-06-09T01:41:26.927Z,100445
2017-06-09T01:43:55.204Z,100446
2017-06-09T01:46:23.458Z,100453
2017-06-09T01:48:52.288Z,100444
2017-06-09T01:51:20.451Z,100442
2017-06-09T01:53:48.636Z,100436
2017-06-09T01:56:17.161Z,100441
2017-06-09T01:58:45.348Z,100455
2017-06-09T02:01:13.573Z,100450
2017-06-09T02:03:42.250Z,100454
2017-06-09T02:06:10.427Z,100459
2017-06-09T02:08:38.624Z,100458
2017-06-09T02:11:07.196Z,100463
2017-06-09T02:13:36.192Z,100469
2017-06-09T02:16:04.497Z,100468
2017-06-09T02:18:33.018Z,100476
2017-06-09T02:21:01.227Z,100482
2017-06-09T02:23:29.407Z,100476
2017-06-09T02:25:57.936Z,100476
2017-06-09T02:28:26.111Z,100478
2017-06-09T02:30:54.310Z,100482
2017-06-09T02:33:23.004Z,100484
2017-06-09T02:35:51.954Z,100498
2017-06-09T02:38:20.169Z,100494
2017-06-09T02:40:48.735Z,100491
2017-06-09T02:43:16.909Z,100498
2017-06-09T02:45:45.108Z,100488
2017-06-09T02:48:13.659Z,100477
2017-06-09T02:50:41.831Z,100468
2017-06-09T02:53:10.021Z,100469
2017-06-09T02:55:38.586Z,100463
2017-06-09T02:58:06.769Z,100455
2017-06-09T03:00:35.134Z,100451
2017-06-09T03:03:03.735Z,100456
2017-06-09T03:05:31.973Z,100457
2017-06-09T03:08:00.155Z,100473
2017-06-09T03:10:28.688Z,100476
2017-06-09T03:12:56.865Z,100478
2017-06-09T03:15:25.795Z,100472
2017-06-09T03:17:54.403Z,100477
2017-06-09T03:20:22.589Z,100476
2017-06-09T03:22:51.043Z,100481
2017-06-09T03:25:19.543Z,100485
2017-06-09T03:27:47.710Z,100486
2017-06-09T03:30:15.982Z,100480
2017-06-09T03:32:50.115Z,100486
2017-06-09T03:35:19.149Z,100491
2017-06-09T03:37:47.336Z,100491
2017-06-09T03:40:16.045Z,100480
2017-06-09T03:42:44.237Z,100486
2017-06-09T03:45:13.238Z,100476
2017-06-09T03:47:41.796Z,100476
2017-06-09T03:50:10.098Z,100473
2017-06-09T03:52:38.311Z,100485
2017-06-09T03:55:06.915Z,100480
2017-06-09T03:57:35.113Z,100482
2017-06-09T04:00:03.339Z,100476
2017-06-09T04:02:31.988Z,100466
2017-06-09T04:05:00.174Z,100453
2017-06-09T04:07:28.378Z,100446
2017-06-09T04:09:56.977Z,100458
2017-06-09T04:12:25.173Z,100448
2017-06-09T04:14:53.376Z,100431
2017-06-09T04:17:22.031Z,100438
2017-06-09T04:19:50.295Z,100452
2017-06-09T04:22:18.478Z,100447
2017-06-09T04:24:47.045Z,100434
2017-06-09T04:27:15.265Z,100441
2017-06-09T04:29:43.461Z,100426
2017-06-09T04:32:12.098Z,100418
2017-06-09T04:34:40.296Z,100421
2017-06-09T04:37:08.556Z,100429
2017-06-09T04:39:37.136Z,100430
2017-06-09T04:42:05.329Z,100422
2017-06-09T04:44:33.504Z,100433
2017-06-09T04:47:02.021Z,100437
2017-06-09T04:49:30.217Z,100431
2017-06-09T04:51:58.409Z,100428
2017-06-09T04:54:27.770Z,100426
2017-06-09T04:56:55.977Z,100423
2017-06-09T04:59:24.283Z,100424
2017-06-09T05:01:52.910Z,100429
2017-06-09T05:04:21.087Z,100426
2017-06-09T05:06:49.288Z,100432
2017-06-09T05:09:18.671Z,100431
2017-06-09T05:11:46.865Z,100437
2017-06-09T05:14:15.825Z,100438
2017-06-09T05:16:44.408Z,100426
2017-06-09T05:19:12.613Z,100429
2017-06-09T05:21:40.793Z,100423
2017-06-09T05:24:09.367Z,100430
2017-06-09T05:26:37.547Z,100432
2017-06-09T05:29:05.766Z,100425
2017-06-09T05:31:34.326Z,100424
2017-06-09T05:34:02.540Z,100432
2017-06-09T05:36:30.828Z,100430
2017-06-09T05:38:59.372Z,100442
2017-06-09T05:41:27.618Z,100443
2017-06-09T05:43:55.821Z,100433
2017-06-09T05:46:24.412Z,100423
2017-06-09T05:48:52.634Z,100418
2017-06-09T05:51:20.860Z,100410
2017-06-09T05:53:49.547Z,100409
2017-06-09T05:56:17.792Z,100407
2017-06-09T05:58:46.071Z,100411
2017-06-09T06:01:14.693Z,100417
2017-06-09T06:03:42.926Z,100415
2017-06-09T06:06:11.140Z,100407
2017-06-09T06:08:39.700Z,100404
2017-06-09T06:11:07.921Z,100404
2017-06-09T06:13:36.126Z,100407
2017-06-09T06:16:04.652Z,100405
2017-06-09T06:18:32.973Z,100407
2017-06-09T06:21:01.204Z,100404
2017-06-09T06:23:29.945Z,100389
2017-06-09T06:25:58.112Z,100383
2017-06-09T06:28:26.328Z,100390
2017-06-09T06:30:54.891Z,100384
2017-06-09T06:33:23.066Z,100384
2017-06-09T06:35:51.418Z,100385
2017-06-09T06:38:19.853Z,100379
2017-06-09T06:40:48.157Z,100379
2017-06-09T06:43:17.128Z,100378
2017-06-09T06:45:45.610Z,100382
2017-06-09T06:48:13.948Z,100381
2017-06-09T06:50:42.130Z,100395
2017-06-09T06:53:10.491Z,100390
2017-06-09T06:55:38.678Z,100387
2017-06-09T06:58:06.944Z,100374
2017-06-09T07:00:35.352Z,100385
2017-06-09T07:03:03.563Z,100384
2017-06-09T07:05:31.777Z,100382
2017-06-09T07:08:00.197Z,100380
2017-06-09T07:10:29.206Z,100382
2017-06-09T07:12:57.399Z,100381
2017-06-09T07:15:26.039Z,100385
2017-06-09T07:17:54.353Z,100377
2017-06-09T07:20:22.522Z,100375
2017-06-09T07:22:51.158Z,100377
2017-06-09T07:25:19.541Z,100378
2017-06-09T07:27:47.720Z,100379
2017-06-09T07:30:16.282Z,100372
2017-06-09T07:32:44.483Z,100373
2017-06-09T07:35:12.690Z,100365
2017-06-09T07:37:41.203Z,100352
2017-06-09T07:40:09.427Z,100348
2017-06-09T07:42:37.599Z,100350
2017-06-09T07:45:06.164Z,100349
2017-06-09T07:47:34.366Z,100347
2017-06-09T07:50:02.605Z,100347
2017-06-09T07:52:31.211Z,100349
2017-06-09T07:55:00.169Z,100349
2017-06-09T07:57:28.359Z,100352
2017-06-09T07:59:56.930Z,100342
2017-06-09T08:02:25.147Z,100332
2017-06-09T08:04:53.340Z,100318
2017-06-09T08:07:21.965Z,100321
2017-06-09T08:09:50.162Z,100319
2017-06-09T08:12:19.118Z,100312
2017-06-09T08:14:47.637Z,100315
2017-06-09T08:17:16.614Z,100310
2017-06-09T08:19:44.815Z,100305
2017-06-09T08:22:13.422Z,100309
2017-06-09T08:24:41.594Z,100295
2017-06-09T08:27:09.770Z,100291
2017-06-09T08:29:38.460Z,100282
2017-06-09T08:32:06.640Z,100283
2017-06-09T08:34:34.845Z,100282
2017-06-09T08:37:03.394Z,100279
2017-06-09T08:39:31.570Z,100273
2017-06-09T08:41:59.750Z,100273
2017-06-09T08:44:28.340Z,100279
2017-06-09T08:46:56.522Z,100276
2017-06-09T08:49:24.680Z,100271
2017-06-09T08:51:53.224Z,100272
2017-06-09T08:54:21.431Z,100272
2017-06-09T08:56:49.625Z,100272
2017-06-09T08:59:18.174Z,100271
2017-06-09T09:01:46.342Z,100282
2017-06-09T09:04:14.535Z,100275
2017-06-09T09:06:43.118Z,100281
2017-06-09T09:09:11.314Z,100284
2017-06-09T09:11:39.503Z,100288
2017-06-09T09:14:08.245Z,100276
2017-06-09T09:16:36.441Z,100265
2017-06-09T09:19:04.818Z,100266
2017-06-09T09:21:33.397Z,100252
2017-06-09T09:24:01.568Z,100249
2017-06-09T09:26:29.752Z,100229
2017-06-09T09:28:59.058Z,100226
2017-06-09T09:31:28.010Z,100227
2017-06-09T09:33:56.185Z,100224
2017-06-09T09:36:24.698Z,100225
2017-06-09T09:38:52.883Z,100222
2017-06-09T09:41:21.832Z,100227
2017-06-09T09:43:50.499Z,100227
2017-06-09T09:46:18.707Z,100220
2017-06-09T09:48:46.937Z,100218
2017-06-09T09:51:15.565Z,100227
2017-06-09T09:53:43.746Z,100214
2017-06-09T09:56:11.950Z,100218
2017-06-09T09:58:40.585Z,100208
2017-06-09T10:01:08.802Z,100202
2017-06-09T10:03:37.742Z,100204
2017-06-09T10:06:06.336Z,100200
2017-06-09T10:08:34.562Z,100189
2017-06-09T10:11:02.779Z,100197
2017-06-09T10:13:31.368Z,100191
2017-06-09T10:15:59.566Z,100186
2017-06-09T10:18:27.754Z,100176
2017-06-09T10:20:56.306Z,100180
2017-06-09T10:23:24.515Z,100166
2017-06-09T10:25:52.696Z,100167
2017-06-09T10:28:21.336Z,100150
2017-06-09T10:30:49.591Z,100154
2017-06-09T10:33:17.909Z,100151
2017-06-09T10:35:47.213Z,100149
2017-06-09T10:38:16.180Z,100150
2017-06-09T10:40:44.518Z,100142
2017-06-09T10:43:13.235Z,100137
2017-06-09T10:45:41.446Z,100147
2017-06-09T10:48:10.426Z,100138
2017-06-09T10:50:39.106Z,100140
2017-06-09T10:53:08.145Z,100139
2017-06-09T10:55:36.332Z,100144
2017-06-09T10:58:04.932Z,100138
2017-06-09T11:00:33.116Z,100136
2017-06-09T11:03:01.331Z,100136
2017-06-09T11:05:29.977Z,100133
2017-06-09T11:07:58.215Z,100127
2017-06-09T11:10:26.423Z,100129
2017-06-09T11:12:54.941Z,100132
2017-06-09T11:15:23.165Z,100131
2017-06-09T11:17:51.344Z,100128
2017-06-09T11:20:19.884Z,100128
2017-06-09T11:22:48.055Z,100124
2017-06-09T11:25:16.255Z,100135
2017-06-09T11:27:44.864Z,100135
2017-06-09T11:30:13.009Z,100121
2017-06-09T11:32:41.220Z,100096
2017-06-09T11:35:10.501Z,100116
2017-06-09T11:37:38.708Z,100116
2017-06-09T11:40:07.651Z,100109
2017-06-09T11:42:36.243Z,100106
2017-06-09T11:45:04.486Z,100097
2017-06-09T11:47:32.716Z,100091
2017-06-09T11:50:01.243Z,100092
2017-06-09T11:52:29.473Z,100099
2017-06-09T11:54:58.431Z,100105
2017-06-09T11:57:27.033Z,100102
2017-06-09T11:59:55.256Z,100105
2017-06-09T12:02:23.479Z,100095
2017-06-09T12:04:52.261Z,100091
2017-06-09T12:07:20.488Z,100097
2017-06-09T12:09:49.016Z,100082
2017-06-09T12:12:17.629Z,100082
2017-06-09T12:14:46.610Z,100086
2017-06-09T12:17:15.664Z,100077
2017-06-09T12:19:44.577Z,100082
2017-06-09T12:22:12.783Z,100080
2017-06-09T12:24:41.757Z,100082
2017-06-09T12:27:11.074Z,100081
2017-06-09T12:29:39.456Z,100079
2017-06-09T12:32:07.632Z,100075
2017-06-09T12:34:36.272Z,100081
2017-06-09T12:37:04.464Z,100083
2017-06-09T12:52:33.121Z,100067
2017-06-09T12:55:01.436Z,100064
2017-06-09T12:57:29.810Z,100059
2017-06-09T12:59:58.461Z,100065
2017-06-09T13:02:26.631Z,100068
2017-06-09T13:04:54.900Z,100084
2017-06-09T13:07:23.596Z,100080
2017-06-09T13:09:51.775Z,100073
2017-06-09T13:12:20.030Z,100078
2017-06-09T13:14:48.570Z,100076
2017-06-09T13:17:16.760Z,100085
2017-06-09T13:19:44.999Z,100090
2017-06-09T13:22:13.545Z,100098
2017-06-09T13:24:41.764Z,100110
2017-06-09T13:27:09.966Z,100130
2017-06-09T13:29:38.570Z,100129
2017-06-09T13:32:06.811Z,100136
2017-06-09T13:34:35.026Z,100142
2017-06-09T13:37:04.542Z,100147
2017-06-09T13:39:32.772Z,100143
2017-06-09T13:42:01.022Z,100143
2017-06-09T13:44:29.574Z,100149
2017-06-09T13:46:57.862Z,100153
2017-06-09T13:49:26.911Z,100150
2017-06-09T13:51:56.558Z,100164
2017-06-09T13:54:24.777Z,100182
2017-06-09T13:56:53.028Z,100184
2017-06-09T13:59:21.572Z,100190
2017-06-09T14:01:49.773Z,100204
2017-06-09T14:04:18.060Z,100216
2017-06-09T14:06:46.740Z,100229
2017-06-09T14:09:14.953Z,100242
2017-06-09T14:11:43.117Z,100232
2017-06-09T14:14:11.838Z,100241
2017-06-09T14:16:40.063Z,100238
2017-06-09T14:19:09.963Z,100248
2017-06-09T14:21:38.615Z,100253
2017-06-09T14:24:06.808Z,100285
2017-06-09T14:26:35.001Z,100298
2017-06-09T14:29:03.795Z,100351
2017-06-09T14:31:31.979Z,100412
2017-06-09T14:34:00.206Z,100400
2017-06-09T14:36:29.715Z,100388
2017-06-09T14:38:57.902Z,100393
2017-06-09T14:41:26.097Z,100391
2017-06-09T14:43:54.701Z,100376
2017-06-09T14:46:22.863Z,100374
2017-06-09T14:48:51.048Z,100367
2017-06-09T14:51:19.636Z,100359
2017-06-09T14:53:47.988Z,100357
2017-06-09T14:56:16.156Z,100375
2017-06-09T14:58:44.703Z,100390
2017-06-09T15:01:13.940Z,100404
2017-06-09T15:03:42.175Z,100402
2017-06-09T15:06:10.878Z,100423
2017-06-09T15:08:39.076Z,100428
2017-06-09T15:11:07.251Z,100424
2017-06-09T15:13:35.866Z,100439
2017-06-09T15:16:04.086Z,100445
2017-06-09T15:18:32.289Z,100450
2017-06-09T15:21:00.898Z,100452
2017-06-09T15:23:29.199Z,100454
2017-06-09T15:25:57.451Z,100454
2017-06-09T15:28:26.058Z,100458
2017-06-09T15:30:54.279Z,100456
2017-06-09T15:33:22.502Z,100458
2017-06-09T15:35:52.000Z,100442
2017-06-09T15:38:20.954Z,100450
2017-06-09T15:40:49.128Z,100435
2017-06-09T15:43:17.735Z,100451
2017-06-09T15:45:45.920Z,100443
2017-06-09T15:48:14.169Z,100436
2017-06-09T15:50:43.125Z,100425
2017-06-09T15:53:11.359Z,100422
2017-06-09T15:55:40.302Z,100431
2017-06-09T15:58:09.019Z,100428
2017-06-09T16:00:37.203Z,100427
2017-06-09T16:03:05.420Z,100431
2017-06-09T16:05:33.971Z,100417
2017-06-09T16:08:02.945Z,100424
2017-06-09T16:10:31.118Z,100419
2017-06-09T16:12:59.780Z,100428
2017-06-09T16:15:28.061Z,100451
2017-06-09T16:17:56.260Z,100460
2017-06-09T16:20:24.814Z,100465
2017-06-09T16:22:53.067Z,100452
2017-06-09T16:25:21.272Z,100448
2017-06-09T16:27:49.887Z,100466
2017-06-09T16:30:18.879Z,100478
2017-06-09T16:32:47.871Z,100472
2017-06-09T16:35:17.240Z,100466
2017-06-09T16:37:45.465Z,100477
2017-06-09T16:40:13.665Z,100468
2017-06-09T16:42:42.185Z,100466
2017-06-09T16:45:10.405Z,100474
2017-06-09T16:47:38.671Z,100466
2017-06-09T16:50:07.156Z,100463
2017-06-09T16:52:35.347Z,100450
2017-06-09T16:55:03.567Z,100459
2017-06-09T16:57:32.433Z,100459
2017-06-09T17:00:00.735Z,100466
2017-06-09T17:02:29.025Z,100477
2017-06-09T17:04:57.568Z,100486
2017-06-09T17:07:25.768Z,100483
2017-06-09T17:09:54.000Z,100495
2017-06-09T17:12:22.632Z,100497
2017-06-09T17:14:50.831Z,100501
2017-06-09T17:17:19.022Z,100495
2017-06-09T17:19:47.626Z,100500
2017-06-09T17:22:16.610Z,100498
2017-06-09T17:24:45.605Z,100497
2017-06-09T17:27:14.411Z,100493
2017-06-09T17:29:42.643Z,100498
2017-06-09T17:32:10.865Z,100486
2017-06-09T17:34:39.474Z,100500
2017-06-09T17:37:07.777Z,100499
2017-06-09T17:39:35.932Z,100504
2017-06-09T17:42:04.493Z,100517
2017-06-09T17:44:33.802Z,100523
2017-06-09T17:47:02.165Z,100519
2017-06-09T17:49:30.677Z,100511
2017-06-09T17:51:58.961Z,100517
2017-06-09T17:54:27.156Z,100517
2017-06-09T17:56:55.986Z,100505
2017-06-09T17:59:24.194Z,100514
2017-06-09T18:01:52.388Z,100517
2017-06-09T18:04:20.985Z,100516
2017-06-09T18:06:49.254Z,100516
2017-06-09T18:09:17.448Z,100517
2017-06-09T18:11:46.890Z,100530
2017-06-09T18:14:15.271Z,100527
2017-06-09T18:16:43.437Z,100533
2017-06-09T18:19:12.186Z,100533
2017-06-09T18:21:40.398Z,100542
2017-06-09T18:24:08.577Z,100540
2017-06-09T18:26:37.104Z,100544
2017-06-09T18:29:05.302Z,100542
2017-06-09T18:31:34.289Z,100540
2017-06-09T18:34:02.973Z,100555
2017-06-09T18:36:31.980Z,100551
2017-06-09T18:39:00.168Z,100553
2017-06-09T18:41:28.698Z,100555
2017-06-09T18:43:56.927Z,100554
2017-06-09T18:46:25.134Z,100560
2017-06-09T18:48:53.829Z,100572
2017-06-09T18:51:22.205Z,100569
2017-06-09T18:53:50.442Z,100577
2017-06-09T18:56:19.243Z,100581
2017-06-09T18:58:47.616Z,100580
2017-06-09T19:01:15.827Z,100577
2017-06-09T19:03:44.514Z,100580
2017-06-09T19:06:12.758Z,100580
2017-06-09T19:08:40.999Z,100587
2017-06-09T19:11:09.676Z,100586
2017-06-09T19:13:38.657Z,100587
2017-06-09T19:16:06.985Z,100588
2017-06-09T19:18:35.603Z,100599
2017-06-09T19:21:03.854Z,100600
2017-06-09T19:23:32.078Z,100608
2017-06-09T19:26:00.742Z,100614
2017-06-09T19:28:29.057Z,100612
2017-06-09T19:30:57.294Z,100621
2017-06-09T19:33:25.887Z,100617
2017-06-09T19:35:54.923Z,100637
2017-06-09T19:38:23.191Z,100628
2017-06-09T19:40:51.830Z,100641
2017-06-09T19:43:20.020Z,100650
2017-06-09T19:45:48.271Z,100659
2017-06-09T19:48:16.844Z,100655
2017-06-09T19:50:45.087Z,100657
2017-06-09T19:53:13.347Z,100670
2017-06-09T19:55:41.922Z,100670
2017-06-09T19:58:10.122Z,100673
2017-06-09T20:00:38.311Z,100672
2017-06-09T20:03:06.879Z,100683
2017-06-09T20:05:35.123Z,100688
2017-06-09T20:08:03.456Z,100688
2017-06-09T20:10:32.067Z,100697
2017-06-09T20:13:01.059Z,100702
2017-06-09T20:15:29.273Z,100696
2017-06-09T20:17:57.899Z,100707
2017-06-09T20:20:26.141Z,100707
2017-06-09T20:22:54.362Z,100713
2017-06-09T20:25:22.816Z,100713
2017-06-09T20:27:51.022Z,100714
2017-06-09T20:30:19.285Z,100705
2017-06-09T20:32:48.451Z,100708
2017-06-09T20:35:16.738Z,100714
2017-06-09T20:37:44.977Z,100722
2017-06-09T20:40:13.392Z,100723
2017-06-09T20:42:41.638Z,100724
2017-06-09T20:45:09.868Z,100729
2017-06-09T20:47:39.154Z,100731
2017-06-09T20:50:07.360Z,100731
2017-06-09T20:52:35.630Z,100734
2017-06-09T20:55:04.091Z,100734
2017-06-09T20:57:33.038Z,100741
2017-06-09T21:00:01.257Z,100744
2017-06-09T21:02:30.545Z,100747
2017-06-09T21:04:58.828Z,100748
2017-06-09T21:07:27.787Z,100751
2017-06-09T21:09:56.345Z,100752
2017-06-09T21:12:24.562Z,100760
2017-06-09T21:14:52.759Z,100757
2017-06-09T21:17:21.894Z,100760
2017-06-09T21:19:50.105Z,100756
2017-06-09T21:22:18.277Z,100758
2017-06-09T21:24:46.754Z,100763
2017-06-09T21:27:14.985Z,100760
2017-06-09T21:29:43.184Z,100760
2017-06-09T21:32:11.672Z,100766
2017-06-09T21:34:39.895Z,100768
2017-06-09T21:37:08.083Z,100767
2017-06-09T21:39:37.110Z,100776
2017-06-09T21:42:05.316Z,100773
2017-06-09T21:44:34.257Z,100770
2017-06-09T21:47:02.761Z,100771
2017-06-09T21:49:30.945Z,100773
2017-06-09T21:51:59.185Z,100776
2017-06-09T21:54:27.723Z,100780
2017-06-09T21:56:56.704Z,100773
2017-06-09T21:59:24.910Z,100774
2017-06-09T22:01:53.296Z,100776
2017-06-09T22:04:21.513Z,100779
2017-06-09T22:06:49.690Z,100782
2017-06-09T22:09:18.171Z,100791
2017-06-09T22:11:46.355Z,100791
2017-06-09T22:14:15.290Z,100794
2017-06-09T22:16:43.838Z,100789
2017-06-09T22:19:12.808Z,100797
2017-06-09T22:21:40.996Z,100798
2017-06-09T22:24:10.170Z,100805
2017-06-09T22:26:38.346Z,100812
2017-06-09T22:29:06.581Z,100809
2017-06-09T22:31:34.994Z,100811
2017-06-09T22:34:03.189Z,100816
2017-06-09T22:36:32.189Z,100815
2017-06-09T22:39:01.342Z,100816
2017-06-09T22:41:29.551Z,100820
2017-06-09T22:43:57.780Z,100823
2017-06-09T22:46:26.290Z,100824
2017-06-09T22:48:54.471Z,100826
2017-06-09T22:51:22.676Z,100826
2017-06-09T22:53:51.117Z,100834
2017-06-09T22:56:19.298Z,100836
2017-06-09T22:58:47.498Z,100837
2017-06-09T23:01:15.866Z,100838
2017-06-09T23:03:44.843Z,100838
2017-06-09T23:06:13.804Z,100848
2017-06-09T23:08:42.282Z,100849
2017-06-09T23:11:10.491Z,100853
2017-06-09T23:13:39.433Z,100850
2017-06-09T23:16:07.850Z,100845
2017-06-09T23:18:36.050Z,100838
2017-06-09T23:21:04.485Z,100846
2017-06-09T23:23:33.158Z,100844
2017-06-09T23:26:01.366Z,100846
2017-06-09T23:28:30.327Z,100837
2017-06-09T23:31:04.152Z,100835
2017-06-09T23:33:32.345Z,100843
2017-06-09T23:36:06.109Z,100838
2017-06-09T23:38:34.278Z,100839
2017-06-09T23:41:02.502Z,100845
2017-06-09T23:43:31.656Z,100844
2017-06-09T23:45:59.850Z,100848
2017-06-09T23:48:28.055Z,100855
2017-06-09T23:50:56.438Z,100853
2017-06-09T23:53:24.655Z,100858
2017-06-09T23:55:52.867Z,100849
2017-06-09T23:58:22.014Z,100858
